createdAt,value
2017-11-16T00:00:40.777Z,100.0
2017-11-16T00:01:42.441Z,100.0
2017-11-16T00:02:44.045Z,100.0
2017-11-16T00:03:45.653Z,100.0
2017-11-16T00:04:47.276Z,100.0
2017-11-16T00:05:48.887Z,100.0
2017-11-16T00:06:50.514Z,100.0
2017-11-16T00:07:52.141Z,100.0
2017-11-16T00:08:53.816Z,100.0
2017-11-16T00:09:55.474Z,100.0
2017-11-16T00:10:57.052Z,100.0
2017-11-16T00:11:58.665Z,100.0
2017-11-16T00:13:00.278Z,100.0
2017-11-16T00:14:01.911Z,100.0
2017-11-16T00:15:03.506Z,100.0
2017-11-16T00:16:05.120Z,100.0
2017-11-16T00:17:06.745Z,100.0
2017-11-16T00:18:08.346Z,100.0
2017-11-16T00:19:09.958Z,100.0
2017-11-16T00:20:11.704Z,100.0
2017-11-16T00:21:13.296Z,100.0
2017-11-16T00:22:14.909Z,100.0
2017-11-16T00:23:16.523Z,100.0
2017-11-16T00:25:29.105Z,100.0
2017-11-16T00:26:30.805Z,100.0
2017-11-16T00:27:32.392Z,100.0
2017-11-16T00:28:33.995Z,100.0
2017-11-16T00:29:35.652Z,100.0
2017-11-16T00:30:37.265Z,100.0
2017-11-16T00:31:38.899Z,100.0
2017-11-16T00:32:40.647Z,100.0
2017-11-16T00:33:42.645Z,100.0
2017-11-16T00:34:44.261Z,100.0
2017-11-16T00:35:45.873Z,100.0
2017-11-16T00:36:47.485Z,100.0
2017-11-16T00:37:49.097Z,100.0
2017-11-16T00:38:50.716Z,100.0
2017-11-16T00:39:52.324Z,100.0
2017-11-16T00:40:53.936Z,100.0
2017-11-16T00:41:55.561Z,100.0
2017-11-16T00:42:57.170Z,100.0
2017-11-16T00:43:58.787Z,100.0
2017-11-16T00:45:00.401Z,100.0
2017-11-16T00:46:02.015Z,100.0
2017-11-16T00:47:03.640Z,100.0
2017-11-16T00:48:05.249Z,100.0
2017-11-16T00:49:06.855Z,100.0
2017-11-16T00:50:08.465Z,100.0
2017-11-16T00:51:10.077Z,100.0
2017-11-16T00:52:11.689Z,100.0
2017-11-16T00:53:13.329Z,100.0
2017-11-16T00:54:14.925Z,100.0
2017-11-16T00:55:16.533Z,100.0
2017-11-16T00:56:18.147Z,100.0
2017-11-16T00:57:19.757Z,100.0
2017-11-16T00:58:21.368Z,100.0
2017-11-16T00:59:22.999Z,100.0
2017-11-16T01:00:24.639Z,100.0
2017-11-16T01:01:26.254Z,100.0
2017-11-16T01:02:27.865Z,100.0
2017-11-16T01:03:29.479Z,100.0
2017-11-16T01:04:31.089Z,100.0
2017-11-16T01:05:32.722Z,100.0
2017-11-16T01:06:34.334Z,100.0
2017-11-16T01:07:35.961Z,100.0
2017-11-16T01:08:37.569Z,100.0
2017-11-16T01:09:39.198Z,100.0
2017-11-16T01:10:40.808Z,100.0
2017-11-16T01:11:42.432Z,100.0
2017-11-16T01:12:44.036Z,100.0
2017-11-16T01:13:45.648Z,100.0
2017-11-16T01:14:47.261Z,100.0
2017-11-16T01:15:48.871Z,100.0
2017-11-16T01:16:50.483Z,100.0
2017-11-16T01:17:52.095Z,100.0
2017-11-16T01:18:53.705Z,100.0
2017-11-16T01:19:55.317Z,100.0
2017-11-16T01:20:56.946Z,100.0
2017-11-16T01:21:58.558Z,100.0
2017-11-16T01:23:00.239Z,100.0
2017-11-16T01:24:01.817Z,100.0
2017-11-16T01:25:03.454Z,100.0
2017-11-16T01:26:05.065Z,100.0
2017-11-16T01:27:06.682Z,100.0
2017-11-16T01:28:08.293Z,100.0
2017-11-16T01:29:09.906Z,100.0
2017-11-16T01:30:11.518Z,100.0
2017-11-16T01:31:13.133Z,100.0
2017-11-16T01:32:14.754Z,100.0
2017-11-16T01:33:16.366Z,100.0
2017-11-16T01:34:17.976Z,100.0
2017-11-16T01:35:19.589Z,100.0
2017-11-16T01:36:21.202Z,100.0
2017-11-16T01:37:22.826Z,100.0
2017-11-16T01:38:24.437Z,100.0
2017-11-16T01:39:26.099Z,100.0
2017-11-16T01:40:27.692Z,100.0
2017-11-16T01:41:29.431Z,100.0
2017-11-16T01:42:31.047Z,100.0
2017-11-16T01:43:32.657Z,100.0
2017-11-16T01:44:34.275Z,100.0
2017-11-16T01:45:35.891Z,100.0
2017-11-16T01:46:37.521Z,100.0
2017-11-16T01:47:39.132Z,100.0
2017-11-16T01:48:41.087Z,100.0
2017-11-16T01:49:42.935Z,100.0
2017-11-16T01:50:44.546Z,100.0
2017-11-16T01:51:46.159Z,100.0
2017-11-16T01:52:47.769Z,100.0
2017-11-16T01:53:49.379Z,100.0
2017-11-16T01:54:50.994Z,100.0
2017-11-16T01:55:52.605Z,100.0
2017-11-16T01:56:54.216Z,100.0
2017-11-16T01:57:55.846Z,100.0
2017-11-16T01:58:57.455Z,100.0
2017-11-16T01:59:59.064Z,100.0
2017-11-16T02:01:00.674Z,100.0
2017-11-16T02:02:02.288Z,100.0
2017-11-16T02:03:03.903Z,100.0
2017-11-16T02:04:05.516Z,100.0
2017-11-16T02:05:07.135Z,100.0
2017-11-16T02:06:08.775Z,100.0
2017-11-16T02:07:10.386Z,100.0
2017-11-16T02:08:11.994Z,100.0
2017-11-16T02:09:13.607Z,100.0
2017-11-16T02:10:15.219Z,100.0
2017-11-16T02:11:16.827Z,100.0
2017-11-16T02:12:18.440Z,100.0
2017-11-16T02:13:20.055Z,100.0
2017-11-16T02:14:21.676Z,100.0
2017-11-16T02:15:23.284Z,100.0
2017-11-16T02:16:24.896Z,100.0
2017-11-16T02:17:26.506Z,100.0
2017-11-16T02:18:28.119Z,100.0
2017-11-16T02:19:29.732Z,100.0
2017-11-16T02:20:31.345Z,100.0
2017-11-16T02:21:32.959Z,100.0
2017-11-16T02:22:34.570Z,100.0
2017-11-16T02:23:36.182Z,100.0
2017-11-16T02:24:37.799Z,100.0
2017-11-16T02:25:39.404Z,100.0
2017-11-16T02:26:41.033Z,100.0
2017-11-16T02:27:42.640Z,100.0
2017-11-16T02:28:44.248Z,100.0
2017-11-16T02:29:45.859Z,100.0
2017-11-16T02:30:47.465Z,100.0
2017-11-16T02:31:49.087Z,100.0
2017-11-16T02:32:50.697Z,100.0
2017-11-16T02:33:52.312Z,100.0
2017-11-16T02:34:53.923Z,100.0
2017-11-16T02:35:55.533Z,100.0
2017-11-16T02:36:57.143Z,100.0
2017-11-16T02:37:58.756Z,100.0
2017-11-16T02:39:00.372Z,100.0
2017-11-16T02:40:01.984Z,100.0
2017-11-16T02:41:03.630Z,100.0
2017-11-16T02:42:05.224Z,100.0
2017-11-16T02:43:06.839Z,100.0
2017-11-16T02:44:08.449Z,100.0
2017-11-16T02:45:10.060Z,100.0
2017-11-16T02:46:11.673Z,100.0
2017-11-16T02:47:13.282Z,100.0
2017-11-16T02:48:14.895Z,100.0
2017-11-16T02:49:16.514Z,100.0
2017-11-16T02:50:18.114Z,100.0
2017-11-16T02:51:19.722Z,100.0
2017-11-16T02:52:21.345Z,100.0
2017-11-16T02:53:22.951Z,100.0
2017-11-16T02:54:24.564Z,100.0
2017-11-16T02:55:26.175Z,100.0
2017-11-16T02:56:27.792Z,100.0
2017-11-16T02:57:29.414Z,100.0
2017-11-16T02:58:31.029Z,100.0
2017-11-16T02:59:32.643Z,100.0
2017-11-16T03:00:34.254Z,100.0
2017-11-16T03:01:35.874Z,100.0
2017-11-16T03:02:37.491Z,100.0
2017-11-16T03:03:39.110Z,100.0
2017-11-16T03:04:40.712Z,100.0
2017-11-16T03:05:42.329Z,100.0
2017-11-16T03:06:43.938Z,100.0
2017-11-16T03:07:45.549Z,100.0
2017-11-16T03:08:47.159Z,100.0
2017-11-16T03:09:48.772Z,100.0
2017-11-16T03:10:50.383Z,100.0
2017-11-16T03:11:51.992Z,100.0
2017-11-16T03:12:53.604Z,100.0
2017-11-16T03:13:55.218Z,100.0
2017-11-16T03:14:56.832Z,100.0
2017-11-16T03:15:58.444Z,100.0
2017-11-16T03:17:00.056Z,100.0
2017-11-16T03:18:01.669Z,100.0
2017-11-16T03:19:03.282Z,100.0
2017-11-16T03:20:05.119Z,100.0
2017-11-16T03:21:06.754Z,100.0
2017-11-16T03:22:08.358Z,100.0
2017-11-16T03:23:09.972Z,100.0
2017-11-16T03:24:11.588Z,100.0
2017-11-16T03:25:13.200Z,100.0
2017-11-16T03:26:14.810Z,100.0
2017-11-16T03:27:16.551Z,100.0
2017-11-16T03:28:18.139Z,100.0
2017-11-16T03:29:19.754Z,100.0
2017-11-16T03:30:21.375Z,100.0
2017-11-16T03:31:22.999Z,100.0
2017-11-16T03:32:24.672Z,100.0
2017-11-16T03:33:26.282Z,100.0
2017-11-16T03:34:27.891Z,100.0
2017-11-16T03:35:29.503Z,100.0
2017-11-16T03:36:31.113Z,100.0
2017-11-16T03:37:32.724Z,100.0
2017-11-16T03:38:34.337Z,100.0
2017-11-16T03:39:35.953Z,100.0
2017-11-16T03:40:37.564Z,100.0
2017-11-16T03:41:39.177Z,100.0
2017-11-16T03:42:41.057Z,100.0
2017-11-16T03:43:42.638Z,100.0
2017-11-16T03:44:44.248Z,100.0
2017-11-16T03:45:45.862Z,100.0
2017-11-16T03:46:47.532Z,100.0
2017-11-16T03:47:49.129Z,100.0
2017-11-16T03:48:50.741Z,100.0
2017-11-16T03:49:52.352Z,100.0
2017-11-16T03:50:54.084Z,100.0
2017-11-16T03:51:55.673Z,100.0
2017-11-16T03:52:57.287Z,100.0
2017-11-16T03:53:58.959Z,100.0
2017-11-16T03:55:00.570Z,100.0
2017-11-16T03:56:02.185Z,100.0
2017-11-16T03:57:03.798Z,100.0
2017-11-16T03:58:05.409Z,100.0
2017-11-16T03:59:07.020Z,100.0
2017-11-16T04:00:08.632Z,100.0
2017-11-16T04:01:10.245Z,100.0
2017-11-16T04:02:11.855Z,100.0
2017-11-16T04:03:13.468Z,100.0
2017-11-16T04:04:15.085Z,100.0
2017-11-16T04:05:16.693Z,100.0
2017-11-16T04:06:18.309Z,100.0
2017-11-16T04:07:19.919Z,100.0
2017-11-16T04:08:21.531Z,100.0
2017-11-16T04:09:23.143Z,100.0
2017-11-16T04:10:24.756Z,100.0
2017-11-16T04:11:26.370Z,100.0
2017-11-16T04:12:27.983Z,100.0
2017-11-16T04:13:29.595Z,100.0
2017-11-16T04:14:31.207Z,100.0
2017-11-16T04:15:32.820Z,100.0
2017-11-16T04:16:34.435Z,100.0
2017-11-16T04:17:36.052Z,100.0
2017-11-16T04:18:37.666Z,100.0
2017-11-16T04:19:39.279Z,100.0
2017-11-16T04:20:41.001Z,100.0
2017-11-16T04:21:42.597Z,100.0
2017-11-16T04:22:44.212Z,100.0
2017-11-16T04:23:45.825Z,100.0
2017-11-16T04:24:47.437Z,100.0
2017-11-16T04:25:49.051Z,100.0
2017-11-16T04:26:50.681Z,100.0
2017-11-16T04:27:52.295Z,100.0
2017-11-16T04:28:53.910Z,100.0
2017-11-16T04:29:55.523Z,100.0
2017-11-16T04:30:57.187Z,100.0
2017-11-16T04:31:58.781Z,100.0
2017-11-16T04:33:00.393Z,100.0
2017-11-16T04:34:02.007Z,100.0
2017-11-16T04:35:03.621Z,100.0
2017-11-16T04:36:05.250Z,100.0
2017-11-16T04:37:06.866Z,100.0
2017-11-16T04:38:08.596Z,100.0
2017-11-16T04:39:10.201Z,100.0
2017-11-16T04:40:11.855Z,100.0
2017-11-16T04:41:13.464Z,100.0
2017-11-16T04:42:15.081Z,100.0
2017-11-16T04:43:16.692Z,100.0
2017-11-16T04:44:18.327Z,100.0
2017-11-16T04:45:19.956Z,100.0
2017-11-16T04:46:21.565Z,100.0
2017-11-16T04:47:23.175Z,100.0
2017-11-16T04:48:24.799Z,100.0
2017-11-16T04:49:26.411Z,100.0
2017-11-16T04:50:28.029Z,100.0
2017-11-16T04:51:29.643Z,100.0
2017-11-16T04:52:31.253Z,100.0
2017-11-16T04:53:32.864Z,100.0
2017-11-16T04:54:34.475Z,100.0
2017-11-16T04:55:36.109Z,100.0
2017-11-16T04:56:37.726Z,100.0
2017-11-16T04:57:39.348Z,100.0
2017-11-16T04:58:41.049Z,100.0
2017-11-16T04:59:43.035Z,100.0
2017-11-16T05:00:44.637Z,100.0
2017-11-16T05:01:46.244Z,100.0
2017-11-16T05:02:48.071Z,100.0
2017-11-16T05:03:49.648Z,100.0
2017-11-16T05:04:51.262Z,100.0
2017-11-16T05:05:52.875Z,100.0
2017-11-16T05:06:54.486Z,100.0
2017-11-16T05:07:56.099Z,100.0
2017-11-16T05:08:57.711Z,100.0
2017-11-16T05:09:59.324Z,100.0
2017-11-16T05:11:00.982Z,100.0
2017-11-16T05:12:02.759Z,100.0
2017-11-16T05:13:04.417Z,100.0
2017-11-16T05:14:06.009Z,100.0
2017-11-16T05:15:07.713Z,100.0
2017-11-16T05:16:09.466Z,100.0
2017-11-16T05:17:11.085Z,100.0
2017-11-16T05:18:12.697Z,100.0
2017-11-16T05:19:14.314Z,100.0
2017-11-16T05:20:15.921Z,100.0
2017-11-16T05:21:17.549Z,100.0
2017-11-16T05:22:19.160Z,100.0
2017-11-16T05:23:20.844Z,100.0
2017-11-16T05:24:22.457Z,100.0
2017-11-16T05:25:24.073Z,100.0
2017-11-16T05:26:25.684Z,100.0
2017-11-16T05:27:27.296Z,100.0
2017-11-16T05:28:28.912Z,100.0
2017-11-16T05:29:30.523Z,100.0
2017-11-16T05:30:32.135Z,100.0
2017-11-16T05:31:33.746Z,100.0
2017-11-16T05:32:35.367Z,100.0
2017-11-16T05:33:36.995Z,100.0
2017-11-16T05:34:38.592Z,100.0
2017-11-16T05:35:40.204Z,100.0
2017-11-16T05:36:41.848Z,100.0
2017-11-16T05:37:43.466Z,100.0
2017-11-16T05:38:45.080Z,100.0
2017-11-16T05:39:47.913Z,100.0
2017-11-16T05:40:50.473Z,100.0
2017-11-16T05:41:52.091Z,100.0
2017-11-16T05:42:53.697Z,100.0
2017-11-16T05:43:55.309Z,100.0
2017-11-16T05:44:57.245Z,100.0
2017-11-16T05:45:58.857Z,100.0
2017-11-16T05:47:00.470Z,100.0
2017-11-16T05:48:02.209Z,100.0
2017-11-16T05:49:03.897Z,100.0
2017-11-16T05:50:05.501Z,100.0
2017-11-16T05:51:07.151Z,100.0
2017-11-16T05:52:08.811Z,100.0
2017-11-16T05:53:10.597Z,100.0
2017-11-16T05:54:12.197Z,100.0
2017-11-16T05:55:13.822Z,100.0
2017-11-16T05:56:15.436Z,100.0
2017-11-16T05:57:17.049Z,100.0
2017-11-16T05:58:18.662Z,100.0
2017-11-16T05:59:20.269Z,100.0
2017-11-16T06:00:21.885Z,100.0
2017-11-16T06:01:23.502Z,100.0
2017-11-16T06:02:25.115Z,100.0
2017-11-16T06:03:26.734Z,100.0
2017-11-16T06:04:28.343Z,100.0
2017-11-16T06:05:29.955Z,100.0
2017-11-16T06:06:31.566Z,100.0
2017-11-16T06:07:33.175Z,100.0
2017-11-16T06:08:34.872Z,100.0
2017-11-16T06:09:36.486Z,100.0
2017-11-16T06:10:38.095Z,100.0
2017-11-16T06:11:39.708Z,100.0
2017-11-16T06:12:41.321Z,100.0
2017-11-16T06:13:42.944Z,100.0
2017-11-16T06:14:44.543Z,100.0
2017-11-16T06:15:46.171Z,100.0
2017-11-16T06:16:47.786Z,100.0
2017-11-16T06:17:49.399Z,100.0
2017-11-16T06:18:51.008Z,100.0
2017-11-16T06:19:52.619Z,100.0
2017-11-16T06:20:54.230Z,100.0
2017-11-16T06:21:55.841Z,100.0
2017-11-16T06:22:57.455Z,100.0
2017-11-16T06:23:59.069Z,100.0
2017-11-16T06:25:00.679Z,100.0
2017-11-16T06:26:02.288Z,100.0
2017-11-16T06:27:03.902Z,100.0
2017-11-16T06:28:05.510Z,100.0
2017-11-16T06:29:07.388Z,100.0
2017-11-16T06:30:08.977Z,100.0
2017-11-16T06:31:10.587Z,100.0
2017-11-16T06:32:12.205Z,100.0
2017-11-16T06:33:13.960Z,100.0
2017-11-16T06:34:15.579Z,100.0
2017-11-16T06:35:17.177Z,100.0
2017-11-16T06:36:18.790Z,100.0
2017-11-16T06:37:20.407Z,100.0
2017-11-16T06:38:22.022Z,100.0
2017-11-16T06:39:23.635Z,100.0
2017-11-16T06:40:25.246Z,100.0
2017-11-16T06:41:26.871Z,100.0
2017-11-16T06:42:28.469Z,100.0
2017-11-16T06:43:30.084Z,100.0
2017-11-16T06:44:31.699Z,100.0
2017-11-16T06:45:33.313Z,100.0
2017-11-16T06:46:34.928Z,100.0
2017-11-16T06:47:36.551Z,100.0
2017-11-16T06:48:38.146Z,100.0
2017-11-16T06:49:39.761Z,100.0
2017-11-16T06:50:41.375Z,100.0
2017-11-16T06:51:42.990Z,100.0
2017-11-16T06:52:44.607Z,100.0
2017-11-16T06:53:46.220Z,100.0
2017-11-16T06:54:47.849Z,100.0
2017-11-16T06:55:49.459Z,100.0
2017-11-16T06:56:51.071Z,100.0
2017-11-16T06:57:52.686Z,100.0
2017-11-16T06:58:54.299Z,100.0
2017-11-16T06:59:55.922Z,100.0
2017-11-16T07:00:57.528Z,100.0
2017-11-16T07:01:59.165Z,100.0
2017-11-16T07:03:00.768Z,100.0
2017-11-16T07:04:02.380Z,100.0
2017-11-16T07:05:03.996Z,100.0
2017-11-16T07:06:05.609Z,100.0
2017-11-16T07:07:07.223Z,100.0
2017-11-16T07:08:08.870Z,100.0
2017-11-16T07:09:10.481Z,100.0
2017-11-16T07:10:12.093Z,100.0
2017-11-16T07:11:13.711Z,100.0
2017-11-16T07:12:15.329Z,100.0
2017-11-16T07:13:16.938Z,100.0
2017-11-16T07:14:18.556Z,100.0
2017-11-16T07:15:20.275Z,100.0
2017-11-16T07:16:21.978Z,100.0
2017-11-16T07:17:23.607Z,100.0
2017-11-16T07:18:25.648Z,100.0
2017-11-16T07:19:27.284Z,100.0
2017-11-16T07:20:28.970Z,100.0
2017-11-16T07:21:30.647Z,100.0
2017-11-16T07:22:32.259Z,100.0
2017-11-16T07:23:33.899Z,100.0
2017-11-16T07:24:35.567Z,100.0
2017-11-16T07:25:37.250Z,100.0
2017-11-16T07:26:38.923Z,100.0
2017-11-16T07:27:40.540Z,100.0
2017-11-16T07:28:42.154Z,100.0
2017-11-16T07:29:43.959Z,100.0
2017-11-16T07:30:45.650Z,100.0
2017-11-16T07:31:47.282Z,100.0
2017-11-16T07:32:48.957Z,100.0
2017-11-16T07:33:51.000Z,100.0
2017-11-16T07:34:52.682Z,100.0
2017-11-16T07:35:54.810Z,100.0
2017-11-16T07:36:56.483Z,100.0
2017-11-16T07:37:58.189Z,100.0
2017-11-16T07:39:00.285Z,100.0
2017-11-16T07:40:01.938Z,100.0
2017-11-16T07:41:03.600Z,100.0
2017-11-16T07:42:05.280Z,100.0
2017-11-16T07:43:06.897Z,100.0
2017-11-16T07:44:08.521Z,100.0
2017-11-16T07:45:10.200Z,100.0
2017-11-16T07:46:11.968Z,100.0
2017-11-16T07:47:14.117Z,100.0
2017-11-16T07:48:16.134Z,100.0
2017-11-16T07:49:18.206Z,100.0
2017-11-16T07:50:19.876Z,100.0
2017-11-16T07:51:21.554Z,100.0
2017-11-16T07:52:23.179Z,100.0
2017-11-16T07:53:25.329Z,100.0
2017-11-16T07:54:27.086Z,100.0
2017-11-16T07:55:28.771Z,100.0
2017-11-16T07:56:30.863Z,100.0
2017-11-16T07:57:32.851Z,100.0
2017-11-16T07:58:34.585Z,100.0
2017-11-16T07:59:36.567Z,100.0
2017-11-16T08:00:38.601Z,100.0
2017-11-16T08:01:40.601Z,100.0
2017-11-16T08:02:42.267Z,100.0
2017-11-16T08:03:44.287Z,100.0
2017-11-16T08:04:45.960Z,100.0
2017-11-16T08:05:47.634Z,100.0
2017-11-16T08:06:49.538Z,100.0
2017-11-16T08:07:51.172Z,100.0
2017-11-16T08:08:52.784Z,100.0
2017-11-16T08:09:54.415Z,100.0
2017-11-16T08:10:56.387Z,100.0
2017-11-16T08:11:58.074Z,100.0
2017-11-16T08:13:00.072Z,100.0
2017-11-16T08:14:01.727Z,100.0
2017-11-16T08:15:03.744Z,100.0
2017-11-16T08:16:05.419Z,100.0
2017-11-16T08:17:07.077Z,100.0
2017-11-16T08:18:08.697Z,100.0
2017-11-16T08:19:10.781Z,100.0
2017-11-16T08:20:12.510Z,100.0
2017-11-16T08:21:14.201Z,100.0
2017-11-16T08:22:15.871Z,100.0
2017-11-16T08:23:17.549Z,100.0
2017-11-16T08:24:19.277Z,100.0
2017-11-16T08:25:20.889Z,100.0
2017-11-16T08:26:22.547Z,100.0
2017-11-16T08:27:24.190Z,100.0
2017-11-16T08:28:25.902Z,100.0
2017-11-16T08:29:27.582Z,100.0
2017-11-16T08:30:29.295Z,100.0
2017-11-16T08:31:30.912Z,100.0
2017-11-16T08:32:32.612Z,100.0
2017-11-16T08:33:34.307Z,100.0
2017-11-16T08:34:35.970Z,100.0
2017-11-16T08:35:37.939Z,100.0
2017-11-16T08:36:40.131Z,100.0
2017-11-16T08:37:42.171Z,100.0
2017-11-16T08:38:43.826Z,100.0
2017-11-16T08:39:45.438Z,100.0
2017-11-16T08:40:47.131Z,100.0
2017-11-16T08:41:48.756Z,100.0
2017-11-16T08:42:50.376Z,100.0
2017-11-16T08:43:51.994Z,100.0
2017-11-16T08:44:53.663Z,100.0
2017-11-16T08:45:55.368Z,100.0
2017-11-16T08:46:57.089Z,100.0
2017-11-16T08:47:59.190Z,100.0
2017-11-16T08:49:01.236Z,100.0
2017-11-16T08:50:03.286Z,100.0
2017-11-16T08:51:05.472Z,100.0
2017-11-16T08:52:07.569Z,100.0
2017-11-16T08:53:09.333Z,100.0
2017-11-16T08:54:10.964Z,100.0
2017-11-16T08:55:12.597Z,100.0
2017-11-16T08:56:14.251Z,100.0
2017-11-16T08:57:15.887Z,100.0
2017-11-16T08:58:17.523Z,100.0
2017-11-16T08:59:20.018Z,100.0
2017-11-16T09:00:21.700Z,100.0
2017-11-16T09:01:23.332Z,100.0
2017-11-16T09:02:25.037Z,100.0
2017-11-16T09:03:26.723Z,100.0
2017-11-16T09:04:28.866Z,100.0
2017-11-16T09:05:30.907Z,100.0
2017-11-16T09:06:33.035Z,100.0
2017-11-16T09:07:35.121Z,100.0
2017-11-16T09:08:36.846Z,100.0
2017-11-16T09:09:38.469Z,100.0
2017-11-16T09:10:40.548Z,100.0
2017-11-16T09:11:42.562Z,100.0
2017-11-16T09:12:44.313Z,100.0
2017-11-16T09:13:46.028Z,100.0
2017-11-16T09:14:47.655Z,100.0
2017-11-16T09:15:49.513Z,100.0
2017-11-16T09:16:51.564Z,100.0
2017-11-16T09:17:53.260Z,100.0
2017-11-16T09:18:54.883Z,100.0
2017-11-16T09:19:56.973Z,100.0
2017-11-16T09:20:58.705Z,100.0
2017-11-16T09:22:00.419Z,100.0
2017-11-16T09:23:02.089Z,100.0
2017-11-16T09:24:04.171Z,100.0
2017-11-16T09:25:06.212Z,100.0
2017-11-16T09:26:08.256Z,100.0
2017-11-16T09:27:10.295Z,100.0
2017-11-16T09:28:12.328Z,100.0
2017-11-16T09:29:14.034Z,100.0
2017-11-16T09:30:15.731Z,100.0
2017-11-16T09:31:17.479Z,100.0
2017-11-16T09:32:19.183Z,100.0
2017-11-16T09:33:21.194Z,100.0
2017-11-16T09:34:22.853Z,100.0
2017-11-16T09:35:24.878Z,100.0
2017-11-16T09:36:26.959Z,100.0
2017-11-16T09:37:28.675Z,100.0
2017-11-16T09:38:30.345Z,100.0
2017-11-16T09:39:31.964Z,100.0
2017-11-16T09:40:33.658Z,100.0
2017-11-16T09:41:35.709Z,100.0
2017-11-16T09:42:37.755Z,100.0
2017-11-16T09:43:39.375Z,100.0
2017-11-16T09:44:41.073Z,100.0
2017-11-16T09:45:42.774Z,100.0
2017-11-16T09:46:44.441Z,100.0
2017-11-16T09:47:46.133Z,100.0
2017-11-16T09:48:47.802Z,100.0
2017-11-16T09:49:49.654Z,100.0
2017-11-16T09:50:51.375Z,100.0
2017-11-16T09:51:52.989Z,100.0
2017-11-16T09:52:55.098Z,100.0
2017-11-16T09:53:56.982Z,100.0
2017-11-16T09:54:59.110Z,100.0
2017-11-16T09:56:00.775Z,100.0
2017-11-16T09:57:02.464Z,100.0
2017-11-16T09:58:04.590Z,100.0
2017-11-16T09:59:06.244Z,100.0
2017-11-16T10:00:07.879Z,100.0
2017-11-16T10:01:09.601Z,100.0
2017-11-16T10:02:11.227Z,100.0
2017-11-16T10:03:12.875Z,100.0
2017-11-16T10:04:14.530Z,98.9
2017-11-16T10:05:16.151Z,99.4
2017-11-16T10:06:18.185Z,99.6
2017-11-16T10:07:19.879Z,100.0
2017-11-16T10:08:21.551Z,99.7
2017-11-16T10:09:23.679Z,99.9
2017-11-16T10:10:25.854Z,99.6
2017-11-16T10:11:27.498Z,98.2
2017-11-16T10:12:29.151Z,97.2
2017-11-16T10:13:30.842Z,97.0
2017-11-16T10:14:32.484Z,96.7
2017-11-16T10:15:34.124Z,97.3
2017-11-16T10:16:35.761Z,96.7
2017-11-16T10:17:37.517Z,98.1
2017-11-16T10:18:39.139Z,98.1
2017-11-16T10:19:40.750Z,98.7
2017-11-16T10:20:42.426Z,99.1
2017-11-16T10:21:44.075Z,97.4
2017-11-16T10:22:45.823Z,97.1
2017-11-16T10:23:47.495Z,96.4
2017-11-16T10:24:49.122Z,96.7
2017-11-16T10:25:50.805Z,96.9
2017-11-16T10:26:52.448Z,96.5
2017-11-16T10:27:54.147Z,96.8
2017-11-16T10:28:55.765Z,96.8
2017-11-16T10:29:57.389Z,97.3
2017-11-16T10:30:59.012Z,96.7
2017-11-16T10:32:00.682Z,96.5
2017-11-16T10:33:02.299Z,97.4
2017-11-16T10:34:04.150Z,98.2
2017-11-16T10:35:06.241Z,97.3
2017-11-16T10:36:07.947Z,97.1
2017-11-16T10:37:09.650Z,97.8
2017-11-16T10:38:11.730Z,96.8
2017-11-16T10:39:13.438Z,96.7
2017-11-16T10:40:15.076Z,96.6
2017-11-16T10:41:17.293Z,96.5
2017-11-16T10:42:18.958Z,96.4
2017-11-16T10:43:20.670Z,96.6
2017-11-16T10:44:22.407Z,96.8
2017-11-16T10:45:24.471Z,96.9
2017-11-16T10:46:26.225Z,96.9
2017-11-16T10:47:27.944Z,96.6
2017-11-16T10:48:29.604Z,96.5
2017-11-16T10:49:31.246Z,96.4
2017-11-16T10:50:32.908Z,95.9
2017-11-16T10:51:34.603Z,96.7
2017-11-16T10:52:36.206Z,97.2
2017-11-16T10:53:38.126Z,96.7
2017-11-16T10:54:39.765Z,97.3
2017-11-16T10:55:41.928Z,96.6
2017-11-16T10:56:44.103Z,96.6
2017-11-16T10:57:46.154Z,96.6
2017-11-16T10:58:48.113Z,97.3
2017-11-16T10:59:49.926Z,97.7
2017-11-16T11:00:51.576Z,98.2
2017-11-16T11:01:53.197Z,98.1
2017-11-16T11:02:54.849Z,97.9
2017-11-16T11:03:56.526Z,98.2
2017-11-16T11:04:58.621Z,98.2
2017-11-16T11:06:00.310Z,98.4
2017-11-16T11:07:01.984Z,98.5
2017-11-16T11:08:04.160Z,98.6
2017-11-16T11:09:05.815Z,98.3
2017-11-16T11:10:07.464Z,98.0
2017-11-16T11:11:09.121Z,99.3
2017-11-16T11:12:10.731Z,99.4
2017-11-16T11:13:12.365Z,99.6
2017-11-16T11:14:14.491Z,99.4
2017-11-16T11:15:16.192Z,98.7
2017-11-16T11:16:17.873Z,99.1
2017-11-16T11:17:19.553Z,98.7
2017-11-16T11:18:21.228Z,99.7
2017-11-16T11:19:22.865Z,99.9
2017-11-16T11:20:24.552Z,99.9
2017-11-16T11:21:26.281Z,99.9
2017-11-16T11:22:28.379Z,99.4
2017-11-16T11:23:30.029Z,99.6
2017-11-16T11:24:32.191Z,99.5
2017-11-16T11:25:33.851Z,99.5
2017-11-16T11:26:35.542Z,100.0
2017-11-16T11:27:37.613Z,99.4
2017-11-16T11:28:39.784Z,99.5
2017-11-16T11:29:41.486Z,99.6
2017-11-16T11:30:43.193Z,99.4
2017-11-16T11:31:44.872Z,99.9
2017-11-16T11:32:46.518Z,99.7
2017-11-16T11:33:48.234Z,99.2
2017-11-16T11:34:50.401Z,99.8
2017-11-16T11:35:52.058Z,99.5
2017-11-16T11:36:54.216Z,99.4
2017-11-16T11:37:55.845Z,99.8
2017-11-16T11:38:57.558Z,100.0
2017-11-16T11:39:59.247Z,100.0
2017-11-16T11:41:00.924Z,100.0
2017-11-16T11:42:02.545Z,99.5
2017-11-16T11:43:04.252Z,99.3
2017-11-16T11:44:06.450Z,99.4
2017-11-16T11:45:08.714Z,98.7
2017-11-16T11:46:10.775Z,99.5
2017-11-16T11:47:12.848Z,98.4
2017-11-16T11:48:14.531Z,98.6
2017-11-16T11:49:16.153Z,98.4
2017-11-16T11:50:17.839Z,97.8
2017-11-16T11:51:19.463Z,97.9
2017-11-16T11:52:21.081Z,98.6
2017-11-16T11:53:22.700Z,98.0
2017-11-16T11:54:24.321Z,97.3
2017-11-16T11:55:26.455Z,96.7
2017-11-16T11:56:28.101Z,95.3
2017-11-16T11:57:29.751Z,91.9
2017-11-16T11:58:31.372Z,86.7
2017-11-16T11:59:33.054Z,82.6
2017-11-16T12:00:34.759Z,80.7
2017-11-16T12:01:36.437Z,81.6
2017-11-16T12:02:38.199Z,82.7
2017-11-16T12:03:39.874Z,82.5
2017-11-16T12:04:41.531Z,82.0
2017-11-16T12:05:43.218Z,82.4
2017-11-16T12:06:44.939Z,84.9
2017-11-16T12:07:46.599Z,87.5
2017-11-16T12:08:48.227Z,89.7
2017-11-16T12:09:50.329Z,90.6
2017-11-16T12:10:52.455Z,91.2
2017-11-16T12:11:54.127Z,92.0
2017-11-16T12:12:55.773Z,91.8
2017-11-16T12:13:57.374Z,92.5
2017-11-16T12:14:59.007Z,92.9
2017-11-16T12:16:00.628Z,93.5
2017-11-16T12:17:02.307Z,94.7
2017-11-16T12:18:04.232Z,94.5
2017-11-16T12:19:05.855Z,93.9
2017-11-16T12:20:07.525Z,93.9
2017-11-16T12:21:09.657Z,94.0
2017-11-16T12:22:11.260Z,93.5
2017-11-16T12:23:13.223Z,92.4
2017-11-16T12:24:14.907Z,92.8
2017-11-16T12:25:16.576Z,93.8
2017-11-16T12:26:18.200Z,93.8
2017-11-16T12:27:20.228Z,94.6
2017-11-16T12:28:21.856Z,94.3
2017-11-16T12:29:23.513Z,94.9
2017-11-16T12:30:25.192Z,94.9
2017-11-16T12:31:26.809Z,94.3
2017-11-16T12:32:28.645Z,94.3
2017-11-16T12:33:30.350Z,95.0
2017-11-16T12:34:32.467Z,95.5
2017-11-16T12:35:34.051Z,95.1
2017-11-16T12:36:35.684Z,94.5
2017-11-16T12:37:37.759Z,94.7
2017-11-16T12:38:39.411Z,94.4
2017-11-16T12:39:41.097Z,95.3
2017-11-16T12:40:43.217Z,95.2
2017-11-16T12:41:44.905Z,94.3
2017-11-16T12:42:46.586Z,95.5
2017-11-16T12:43:48.247Z,94.5
2017-11-16T12:44:50.220Z,95.0
2017-11-16T12:45:51.872Z,95.4
2017-11-16T12:46:53.554Z,94.8
2017-11-16T12:47:55.175Z,95.1
2017-11-16T12:48:56.816Z,94.8
2017-11-16T12:49:58.489Z,95.4
2017-11-16T12:51:00.425Z,95.4
2017-11-16T12:52:02.066Z,95.3
2017-11-16T12:53:03.758Z,95.4
2017-11-16T12:54:05.450Z,94.4
2017-11-16T12:55:07.487Z,94.4
2017-11-16T12:56:09.104Z,94.3
2017-11-16T12:57:11.227Z,94.6
2017-11-16T12:58:12.812Z,95.2
2017-11-16T12:59:14.498Z,94.2
2017-11-16T13:00:16.196Z,94.7
2017-11-16T13:01:17.817Z,94.9
2017-11-16T13:02:19.455Z,95.1
2017-11-16T13:03:21.120Z,95.1
2017-11-16T13:04:23.200Z,95.2
2017-11-16T13:05:25.278Z,95.3
2017-11-16T13:06:26.990Z,95.7
2017-11-16T13:07:28.733Z,95.5
2017-11-16T13:08:30.860Z,95.4
2017-11-16T13:09:32.525Z,95.6
2017-11-16T13:10:34.239Z,95.1
2017-11-16T13:11:35.852Z,95.3
2017-11-16T13:12:37.541Z,96.1
2017-11-16T13:13:39.230Z,96.8
2017-11-16T13:14:41.246Z,97.1
2017-11-16T13:15:42.934Z,95.9
2017-11-16T13:16:44.978Z,95.4
2017-11-16T13:17:46.646Z,95.2
2017-11-16T13:18:48.340Z,94.7
2017-11-16T13:19:50.078Z,94.5
2017-11-16T13:20:51.742Z,94.3
2017-11-16T13:21:53.435Z,94.7